Time;durP1;ratioP1;P1;durP2;ratioP2;P2;SDS_P1;SDS_P2;PMS_P1;PMS_P2;Temp;Humidity;BMP_temperature;BMP_pressure;BME280_temperature;BME280_humidity;BME280_pressure;Samples;Min_cycle;Max_cycle;Signal;HPM_P1;HPM_P2
2022/11/15 06:15:36;;;;;;;;;10.25;5.25;;;;;9.29;100.00;100281.84;6207878;22;49668;-71
2022/11/15 06:18:02;;;;;;;;;8.00;5.75;;;;;10.24;100.00;100421.63;6206537;22;49725;-71
2022/11/15 06:20:29;;;;;;;;;4.50;4.50;;;;;10.53;100.00;100463.19;6213088;22;49677;-70
2022/11/15 06:22:59;;;;;;;;;7.00;7.00;;;;;10.38;100.00;100448.06;6205981;22;49727;-72
2022/11/15 06:25:26;;;;;;;;;5.75;5.00;;;;;10.09;100.00;100381.97;6213675;22;49717;-70
2022/11/15 06:27:56;;;;;;;;;6.50;6.50;;;;;10.06;100.00;100363.56;6207551;22;49684;-73
2022/11/15 06:30:23;;;;;;;;;7.00;6.75;;;;;10.42;100.00;100449.91;6205653;22;53104;-75
2022/11/15 06:32:48;;;;;;;;;5.25;4.00;;;;;10.66;100.00;100459.88;6207106;22;49693;-74
2022/11/15 06:35:14;;;;;;;;;7.00;3.50;;;;;10.68;100.00;100454.66;6204136;22;49889;-73
2022/11/15 06:37:40;;;;;;;;;4.75;4.00;;;;;10.72;100.00;100449.50;6205618;22;49677;-73
2022/11/15 06:40:07;;;;;;;;;3.75;3.50;;;;;10.22;100.00;100360.34;6206510;22;49606;-71
2022/11/15 06:42:32;;;;;;;;;6.00;4.00;;;;;10.65;100.00;100431.88;6204757;22;49528;-71
2022/11/15 06:44:58;;;;;;;;;6.00;6.00;;;;;10.71;100.00;100460.88;6204150;22;49939;-76
2022/11/15 06:47:23;;;;;;;;;6.50;6.50;;;;;9.08;100.00;100157.53;6203344;22;49966;-75
2022/11/15 06:49:49;;;;;;;;;6.25;5.75;;;;;10.72;100.00;100430.25;6205653;22;49617;-71
2022/11/15 06:52:14;;;;;;;;;5.50;5.00;;;;;10.72;100.00;100424.97;6205099;22;58174;-71
2022/11/15 06:54:39;;;;;;;;;11.50;7.75;;;;;10.24;100.00;100347.28;6205027;22;62147;-72
2022/11/15 06:57:05;;;;;;;;;9.75;8.00;;;;;10.70;100.00;100422.31;6205500;22;49813;-71
2022/11/15 06:59:31;;;;;;;;;6.50;5.25;;;;;10.53;100.00;100385.34;6205054;22;50731;-75
2022/11/15 07:01:56;;;;;;;;;4.25;4.00;;;;;9.06;100.00;100146.13;6204894;22;49744;-73
2022/11/15 07:04:21;;;;;;;;;7.25;7.00;;;;;9.79;100.00;100284.44;6205271;22;49698;-73
2022/11/15 07:06:48;;;;;;;;;9.75;8.75;;;;;10.52;100.00;100377.44;6205556;22;49543;-80
2022/11/15 07:09:14;;;;;;;;;10.00;10.00;;;;;9.97;100.00;100293.50;6204366;22;53003;-77
2022/11/15 07:11:39;;;;;;;;;10.00;7.50;;;;;9.64;100.00;100233.53;6205748;22;49751;-73
2022/11/15 07:14:05;;;;;;;;;10.00;7.00;;;;;9.16;100.00;100155.88;6216754;22;50075;-79
2022/11/15 07:16:30;;;;;;;;;7.50;7.25;;;;;10.50;100.00;100379.13;6236179;22;49646;-79
2022/11/15 07:18:56;;;;;;;;;2.25;1.25;;;;;9.14;100.00;100157.59;6235105;22;51932;-79
2022/11/15 07:21:21;;;;;;;;;7.50;7.50;;;;;10.51;100.00;100376.53;6235830;22;49588;-74
2022/11/15 07:23:46;;;;;;;;;5.00;5.00;;;;;10.85;100.00;100427.81;6235998;22;49930;-76
2022/11/15 07:26:12;;;;;;;;;5.00;5.00;;;;;10.91;100.00;100444.53;6236015;22;49866;-79
2022/11/15 07:28:37;;;;;;;;;7.00;7.00;;;;;10.94;100.00;100445.44;6235472;22;49692;-74
2022/11/15 07:31:07;;;;;;;;;7.00;5.00;;;;;10.05;100.00;100256.91;6235926;22;49758;-77
2022/11/15 07:33:34;;;;;;;;;11.50;8.50;;;;;10.95;100.00;100413.06;6236186;22;49610;-74
2022/11/15 07:36:01;;;;;;;;;6.25;6.25;;;;;10.97;100.00;100406.06;6235814;22;49798;-74
2022/11/15 07:38:27;;;;;;;;;5.75;5.75;;;;;11.00;100.00;100395.63;6237828;22;49980;-73
2022/11/15 07:41:01;;;;;;;;;5.00;5.00;;;;;11.05;100.00;100393.94;6241326;22;49697;-72
2022/11/15 07:43:30;;;;;;;;;5.25;3.00;;;;;10.59;100.00;100332.03;6239218;22;49898;-75
2022/11/15 07:45:56;;;;;;;;;7.50;5.50;;;;;10.51;100.00;100279.44;6240024;22;49964;-74
2022/11/15 07:48:22;;;;;;;;;7.75;5.00;;;;;10.12;100.00;100194.91;6235717;22;50272;-75
2022/11/15 07:50:48;;;;;;;;;6.00;5.00;;;;;9.84;100.00;100133.34;6235863;22;49653;-76
2022/11/15 07:53:13;;;;;;;;;8.00;6.00;;;;;9.68;100.00;100127.91;6236280;22;49651;-73
2022/11/15 07:55:40;;;;;;;;;4.25;4.25;;;;;10.45;100.00;100237.38;6236198;22;49570;-73
2022/11/15 07:58:10;;;;;;;;;8.00;5.00;;;;;10.35;100.00;100192.63;6234266;22;51012;-73
2022/11/15 08:00:36;;;;;;;;;8.50;7.00;;;;;10.53;100.00;100208.63;6236125;22;49796;-73
2022/11/15 08:03:07;;;;;;;;;6.25;3.25;;;;;11.36;100.00;100347.00;6236198;22;49732;-73
2022/11/15 08:05:33;;;;;;;;;5.75;4.00;;;;;11.07;100.00;100291.50;6236111;22;50158;-73
2022/11/15 08:07:58;;;;;;;;;9.00;6.25;;;;;10.75;100.00;100251.75;6235076;22;52092;-73
2022/11/15 08:10:24;;;;;;;;;3.25;3.00;;;;;11.34;100.00;100338.22;6206868;22;49660;-73
2022/11/15 08:13:00;;;;;;;;;4.00;4.00;;;;;11.46;100.00;100354.09;6235961;22;49683;-73
2022/11/15 08:15:27;;;;;;;;;6.00;6.00;;;;;11.49;100.00;100350.66;6235918;22;49666;-72
2022/11/15 08:17:57;;;;;;;;;6.00;6.00;;;;;11.25;100.00;100327.59;6235696;22;50495;-72
2022/11/15 08:20:23;;;;;;;;;6.50;5.00;;;;;9.93;100.00;100075.78;6235684;22;49697;-73
2022/11/15 08:22:49;;;;;;;;;4.00;4.00;;;;;11.65;100.00;100357.81;6237405;22;49765;-73
2022/11/15 08:25:15;;;;;;;;;3.25;3.25;;;;;10.41;100.00;100158.59;6235932;22;49723;-72
2022/11/15 08:27:40;;;;;;;;;3.00;3.00;;;;;10.73;100.00;100185.22;6230233;22;50536;-72
2022/11/15 08:30:06;;;;;;;;;5.00;4.75;;;;;11.43;100.00;100336.56;6235873;22;49839;-73
2022/11/15 08:32:32;;;;;;;;;6.00;5.00;;;;;11.71;100.00;100326.31;6234980;22;49716;-73
2022/11/15 08:34:57;;;;;;;;;5.00;5.00;;;;;11.77;100.00;100323.72;6210447;22;49930;-72
2022/11/15 08:37:22;;;;;;;;;8.50;4.00;;;;;11.73;100.00;100317.56;6235982;22;49703;-73
2022/11/15 08:39:47;;;;;;;;;2.00;2.00;;;;;11.73;100.00;100312.31;6234803;22;49665;-73
2022/11/15 08:42:14;;;;;;;;;5.75;5.75;;;;;11.86;100.00;100323.84;6237282;22;55219;-73
2022/11/15 08:44:40;;;;;;;;;3.50;3.50;;;;;10.63;100.00;100136.09;6235828;22;49915;-72
2022/11/15 08:47:05;;;;;;;;;4.25;4.00;;;;;10.24;100.00;100063.97;6207101;22;52476;-72
2022/11/15 08:49:30;;;;;;;;;3.00;3.00;;;;;11.39;100.00;100226.16;6239836;22;49705;-74
2022/11/15 08:51:56;;;;;;;;;6.00;4.00;;;;;11.55;100.00;100258.69;6236472;22;49649;-74
2022/11/15 08:54:21;;;;;;;;;5.50;4.00;;;;;11.78;100.00;100251.91;6207504;22;49883;-77
2022/11/15 08:56:46;;;;;;;;;7.75;4.00;;;;;11.82;100.00;100231.78;6234195;22;50350;-73
2022/11/15 08:59:12;;;;;;;;;5.00;5.00;;;;;11.12;100.00;100126.94;6237374;22;49832;-73
2022/11/15 09:01:37;;;;;;;;;5.00;3.50;;;;;12.07;100.00;100240.72;6207613;22;49710;-71
2022/11/15 09:04:03;;;;;;;;;6.75;3.00;;;;;11.84;100.00;100199.34;6237607;22;49785;-72
2022/11/15 09:06:29;;;;;;;;;4.25;3.00;;;;;12.23;100.00;100296.06;6234941;22;49704;-73
2022/11/15 09:08:54;;;;;;;;;5.25;3.75;;;;;12.40;100.00;100287.41;6234513;22;49893;-72
2022/11/15 09:11:21;;;;;;;;;4.00;3.00;;;;;12.39;100.00;100265.47;6236172;22;49747;-72
2022/11/15 09:13:47;;;;;;;;;5.75;5.75;;;;;12.24;100.00;100242.56;6210997;22;49610;-73
2022/11/15 09:16:12;;;;;;;;;4.50;3.00;;;;;12.45;100.00;100268.16;6246185;22;50100;-73
2022/11/15 09:18:38;;;;;;;;;5.50;4.25;;;;;12.33;100.00;100242.63;6246536;22;49222;-73
2022/11/15 09:21:04;;;;;;;;;5.50;5.00;;;;;11.08;100.00;100017.44;6249017;22;49383;-73
2022/11/15 09:23:30;;;;;;;;;2.50;2.50;;;;;12.39;100.00;100235.66;6247108;22;49370;-72
2022/11/15 09:26:01;;;;;;;;;3.75;3.75;;;;;11.43;100.00;100093.88;6240642;22;49852;-74
2022/11/15 09:28:27;;;;;;;;;4.00;4.00;;;;;11.49;100.00;100080.81;6237118;22;49606;-75
2022/11/15 09:31:02;;;;;;;;;5.00;5.00;;;;;11.39;100.00;100071.97;6242089;22;49344;-72
2022/11/15 09:33:28;;;;;;;;;5.75;5.75;;;;;11.91;100.00;100132.78;6239397;22;49518;-74
2022/11/15 09:35:53;;;;;;;;;4.00;4.00;;;;;11.73;100.00;100090.56;6238043;22;49821;-74
2022/11/15 09:38:19;;;;;;;;;2.75;2.75;;;;;12.76;100.00;100263.03;6236261;22;49722;-73
2022/11/15 09:40:51;;;;;;;;;3.00;3.00;;;;;12.77;100.00;100270.94;6238463;22;49745;-73
2022/11/15 09:43:35;;;;;;;;;2.00;2.00;;;;;12.84;100.00;100270.09;6245118;22;50007;-71
2022/11/15 09:46:06;;;;;;;;;2.50;2.50;;;;;12.53;100.00;100213.75;6244581;22;50281;-74
2022/11/15 09:48:49;;;;;;;;;4.00;4.00;;;;;12.90;100.00;100267.44;6237564;22;49704;-72
2022/11/15 09:51:46;;;;;;;;;2.25;2.25;;;;;12.92;100.00;100267.44;6236219;22;49704;-72
2022/11/15 09:54:30;;;;;;;;;3.75;3.00;;;;;12.92;100.00;100264.81;6207907;22;50003;-71
2022/11/15 09:57:31;;;;;;;;;3.50;3.00;;;;;12.27;100.00;100154.88;6242931;22;49811;-70
2022/11/15 09:59:56;;;;;;;;;2.50;2.50;;;;;12.98;100.00;100256.06;6239609;22;49720;-70
2022/11/15 10:02:52;;;;;;;;;2.00;2.00;;;;;13.05;100.00;100273.66;6243976;22;49770;-71
2022/11/15 10:05:22;;;;;;;;;4.50;4.50;;;;;13.07;100.00;100261.38;6236258;22;49656;-71
2022/11/15 10:08:06;;;;;;;;;4.25;4.25;;;;;13.10;100.00;100254.34;6237587;22;51851;-72
2022/11/15 10:10:49;;;;;;;;;3.00;3.00;;;;;13.11;100.00;100249.94;6236327;22;49954;-73
2022/11/15 10:13:33;;;;;;;;;3.50;2.25;;;;;12.78;100.00;100177.88;6234401;22;49678;-73
2022/11/15 10:16:35;;;;;;;;;2.00;2.00;;;;;13.01;100.00;100206.00;6236315;22;49946;-74
2022/11/15 10:19:20;;;;;;;;;3.25;3.25;;;;;13.11;100.00;100224.47;6235635;22;51220;-72
2022/11/15 10:22:01;;;;;;;;;1.75;1.75;;;;;12.92;100.00;100191.06;6235713;22;49732;-73
2022/11/15 10:24:30;;;;;;;;;2.00;2.00;;;;;12.79;100.00;100142.75;6235754;22;49739;-75
2022/11/15 10:26:59;;;;;;;;;3.00;3.00;;;;;13.03;100.00;100172.66;6236835;22;49966;-72
2022/11/15 10:29:25;;;;;;;;;3.00;3.00;;;;;13.17;100.00;100210.44;6235512;22;50514;-72
2022/11/15 10:31:50;;;;;;;;;2.25;2.25;;;;;13.17;100.00;100192.88;6235721;22;49709;-72
2022/11/15 10:34:22;;;;;;;;;5.00;3.50;;;;;11.95;100.00;100007.41;6240587;22;50208;-73
2022/11/15 10:36:58;;;;;;;;;2.00;2.00;;;;;12.56;100.00;100089.16;6242460;22;49436;-72
2022/11/15 10:39:24;;;;;;;;;5.00;4.00;;;;;12.00;100.00;100009.19;6211747;22;50993;-72
2022/11/15 10:41:50;;;;;;;;;6.00;4.00;;;;;12.81;100.00;100109.38;6243899;22;49380;-72
2022/11/15 10:44:24;;;;;;;;;2.00;2.00;;;;;13.33;100.00;100174.47;6242618;22;49648;-73
2022/11/15 10:46:55;;;;;;;;;1.00;1.00;;;;;13.38;100.00;100164.78;6237530;22;49734;-76
2022/11/15 10:49:22;;;;;;;;;2.50;2.50;;;;;13.26;100.00;100148.97;6236224;22;49813;-72
2022/11/15 10:51:51;;;;;;;;;4.25;2.75;;;;;12.91;100.00;100091.81;6238289;22;49665;-72
2022/11/15 10:54:29;;;;;;;;;4.00;3.75;;;;;13.09;100.00;100131.34;6235684;22;49496;-72
2022/11/15 10:56:59;;;;;;;;;6.00;5.25;;;;;12.53;100.00;100047.88;6236539;22;49722;-73
2022/11/15 10:59:29;;;;;;;;;5.00;5.00;;;;;12.29;100.00;99974.16;6235471;22;50019;-73
2022/11/15 11:01:55;;;;;;;;;5.25;4.75;;;;;13.08;100.00;100121.69;6234889;22;49602;-73
2022/11/15 11:04:21;;;;;;;;;5.75;4.25;;;;;13.17;100.00;100120.81;6235485;22;49629;-73
2022/11/15 11:06:55;;;;;;;;;6.75;4.75;;;;;12.56;100.00;100007.53;6235166;22;50147;-72
2022/11/15 11:09:32;;;;;;;;;5.25;4.00;;;;;13.32;100.00;100122.63;6235443;22;50281;-70
2022/11/15 11:11:58;;;;;;;;;5.00;3.75;;;;;13.35;100.00;100120.84;6235545;22;49810;-69
2022/11/15 11:14:31;;;;;;;;;4.25;3.75;;;;;13.36;100.00;100116.47;6235855;22;50099;-71
2022/11/15 11:17:15;;;;;;;;;4.50;4.00;;;;;13.36;100.00;100114.69;6239156;22;49699;-70
2022/11/15 11:20:03;;;;;;;;;4.00;4.00;;;;;13.34;100.00;100121.75;6236149;22;50734;-72
2022/11/15 11:23:01;;;;;;;;;4.50;4.50;;;;;13.35;100.00;100112.94;6237943;22;49539;-71
2022/11/15 11:26:00;;;;;;;;;4.25;4.25;;;;;12.15;100.00;99915.38;6235096;22;49860;-71
2022/11/15 11:28:47;;;;;;;;;3.75;3.75;;;;;13.23;100.00;100085.72;6235820;22;49888;-71
2022/11/15 11:31:20;;;;;;;;;4.75;4.75;;;;;13.34;100.00;100100.66;6236355;22;49991;-69
2022/11/15 11:34:09;;;;;;;;;6.00;4.75;;;;;12.95;100.00;100033.00;6236270;22;49774;-70
2022/11/15 11:36:49;;;;;;;;;3.00;3.00;;;;;13.40;100.00;100107.66;6207847;22;49867;-70
2022/11/15 11:39:45;;;;;;;;;4.00;3.50;;;;;13.42;100.00;100098.88;6236547;22;49721;-70
2022/11/15 11:42:41;;;;;;;;;2.00;1.00;;;;;13.36;100.00;100100.66;6236499;22;50655;-70
2022/11/15 11:45:09;;;;;;;;;5.25;5.00;;;;;13.40;100.00;100094.47;6236302;22;49670;-71
2022/11/15 11:47:40;;;;;;;;;2.75;2.75;;;;;13.30;100.00;100075.16;6239988;22;49578;-73
2022/11/15 11:50:15;;;;;;;;;5.25;5.25;;;;;13.47;100.00;100080.41;6238274;22;49658;-72
2022/11/15 11:52:56;;;;;;;;;6.25;5.25;;;;;12.89;100.00;99986.47;6235867;22;50753;-75
2022/11/15 11:55:28;;;;;;;;;4.50;3.75;;;;;13.29;100.00;100028.59;6239592;22;49621;-74
2022/11/15 11:58:05;;;;;;;;;4.00;4.00;;;;;13.03;100.00;99986.47;6240485;22;49798;-74
2022/11/15 12:00:35;;;;;;;;;2.50;2.50;;;;;12.63;100.00;99926.78;6236489;22;49729;-75
2022/11/15 12:03:13;;;;;;;;;6.00;5.00;;;;;13.51;100.00;100052.25;6238523;22;50806;-76
2022/11/15 12:05:46;;;;;;;;;5.00;5.00;;;;;12.76;100.00;99916.25;6238540;22;49534;-75
2022/11/15 12:08:30;;;;;;;;;7.00;5.75;;;;;13.54;100.00;100055.78;6234835;22;49798;-75
2022/11/15 12:11:11;;;;;;;;;9.25;7.00;;;;;12.65;100.00;99896.97;6236203;22;49677;-73
2022/11/15 12:13:38;;;;;;;;;4.75;4.75;;;;;13.60;100.00;100036.41;6239324;22;49690;-73
2022/11/15 12:16:09;;;;;;;;;6.25;6.00;;;;;13.62;100.00;100037.31;6239265;22;49881;-70
2022/11/15 12:18:35;;;;;;;;;7.00;7.00;;;;;12.32;100.00;99832.91;6242282;22;49767;-73
2022/11/15 12:21:07;;;;;;;;;7.00;5.75;;;;;13.57;100.00;100033.81;6244568;22;49181;-71
2022/11/15 12:23:40;;;;;;;;;7.00;7.00;;;;;13.58;100.00;100025.88;6237431;22;49710;-72
2022/11/15 12:26:12;;;;;;;;;7.00;7.00;;;;;13.65;100.00;100032.03;6241846;22;49710;-72
2022/11/15 12:29:01;;;;;;;;;7.50;7.00;;;;;13.70;100.00;100030.22;6247441;22;49156;-73
2022/11/15 12:31:47;;;;;;;;;5.25;4.75;;;;;13.25;100.00;99952.19;6245384;22;49795;-71
2022/11/15 12:34:18;;;;;;;;;4.50;4.50;;;;;13.79;100.00;100009.09;6208427;22;50767;-72
2022/11/15 12:36:44;;;;;;;;;8.25;8.25;;;;;13.62;100.00;99977.53;6241132;22;49538;-72
2022/11/15 12:39:11;;;;;;;;;7.75;5.25;;;;;13.52;100.00;99948.56;6237445;22;49828;-72
2022/11/15 12:41:38;;;;;;;;;8.00;6.75;;;;;13.89;100.00;99999.38;6238449;22;49617;-73
2022/11/15 12:44:05;;;;;;;;;6.00;6.00;;;;;13.87;100.00;99977.41;6238164;22;52610;-72
2022/11/15 12:46:30;;;;;;;;;4.00;4.00;;;;;13.97;100.00;99987.91;6236379;22;49660;-73
2022/11/15 12:49:04;;;;;;;;;5.75;5.75;;;;;13.70;100.00;99917.72;6236725;22;50076;-73
2022/11/15 12:51:47;;;;;;;;;5.00;5.00;;;;;14.07;100.00;99969.38;6237439;22;49651;-73
2022/11/15 12:54:21;;;;;;;;;4.75;4.75;;;;;14.15;100.00;99964.94;6237158;22;49825;-79
2022/11/15 12:57:02;;;;;;;;;3.00;3.00;;;;;14.21;100.00;99963.16;6237279;22;49728;-78
2022/11/15 12:59:50;;;;;;;;;6.00;4.25;;;;;14.21;100.00;99955.22;6239496;22;49915;-79
2022/11/15 13:02:37;;;;;;;;;5.50;4.25;;;;;14.25;100.00;99956.06;6238712;22;49650;-73
2022/11/15 13:05:15;;;;;;;;;6.25;5.50;;;;;14.23;100.00;99945.53;6209324;22;51504;-78
2022/11/15 13:07:41;;;;;;;;;5.75;5.25;;;;;14.19;100.00;99930.59;6235545;22;49700;-78
2022/11/15 13:10:09;;;;;;;;;4.00;4.00;;;;;14.19;100.00;99930.59;6235952;22;49643;-78
2022/11/15 13:12:38;;;;;;;;;9.50;7.25;;;;;13.91;100.00;99890.34;6236280;22;49778;-78
2022/11/15 13:15:13;;;;;;;;;4.75;3.75;;;;;14.21;100.00;99928.81;6233659;22;50685;-78
2022/11/15 13:17:45;;;;;;;;;5.25;5.25;;;;;14.28;100.00;99929.63;6236275;22;49755;-79
2022/11/15 13:20:10;;;;;;;;;8.00;6.00;;;;;14.32;100.00;99926.97;6236532;22;49541;-79
2022/11/15 13:22:50;;;;;;;;;7.25;6.50;;;;;14.40;100.00;99928.69;6236306;22;49840;-79
2022/11/15 13:25:21;;;;;;;;;5.75;5.00;;;;;14.40;100.00;99911.06;6236087;22;49804;-76
2022/11/15 13:27:48;;;;;;;;;9.25;7.00;;;;;14.39;100.00;99919.88;6235638;22;49830;-79
2022/11/15 13:30:20;;;;;;;;;5.00;5.00;;;;;13.62;100.00;99779.75;6236289;22;49717;-79
2022/11/15 13:32:46;;;;;;;;;5.50;5.50;;;;;12.92;100.00;99661.56;6236608;22;49747;-79
2022/11/15 13:35:21;;;;;;;;;6.00;6.00;;;;;14.29;100.00;99882.13;6236688;22;50864;-79
2022/11/15 13:37:47;;;;;;;;;6.25;4.00;;;;;13.86;100.00;99797.13;6235762;22;49887;-80
2022/11/15 13:40:33;;;;;;;;;5.25;4.50;;;;;14.55;100.00;99912.72;6236132;22;49765;-78
2022/11/15 13:43:13;;;;;;;;;4.25;3.00;;;;;13.99;100.00;99813.72;6234628;22;49940;-77
2022/11/15 13:45:39;;;;;;;;;3.00;3.00;;;;;13.29;100.00;99709.66;6207980;22;51674;-77
2022/11/15 13:48:06;;;;;;;;;4.00;4.00;;;;;14.01;100.00;99833.09;6235901;22;49711;-78
2022/11/15 13:50:36;;;;;;;;;4.00;4.00;;;;;13.87;100.00;99795.38;6235748;22;49660;-77
2022/11/15 13:53:04;;;;;;;;;7.00;6.00;;;;;14.57;100.00;99909.22;6235060;22;49798;-77
2022/11/15 13:55:35;;;;;;;;;4.25;4.25;;;;;14.41;100.00;99867.94;6233834;22;50909;-82
2022/11/15 13:58:06;;;;;;;;;2.50;2.50;;;;;13.13;100.00;99669.34;6237470;22;49644;-77
2022/11/15 14:00:43;;;;;;;;;4.00;3.75;;;;;13.07;100.00;99640.38;6211459;22;49821;-77
2022/11/15 14:03:22;;;;;;;;;5.50;4.25;;;;;14.07;100.00;99840.94;6238610;22;49599;-79
2022/11/15 14:06:11;;;;;;;;;4.00;4.00;;;;;14.30;100.00;99881.25;6236824;22;50879;-79
2022/11/15 14:08:56;;;;;;;;;3.25;3.00;;;;;14.31;100.00;99885.63;6237541;22;49875;-77
2022/11/15 14:11:21;;;;;;;;;4.75;4.75;;;;;13.97;100.00;99823.44;6242977;22;49570;-78
2022/11/15 14:14:09;;;;;;;;;4.00;4.00;;;;;14.22;100.00;99863.72;6210900;22;49618;-77
2022/11/15 14:16:35;;;;;;;;;4.25;4.25;;;;;14.19;100.00;99856.69;6237246;22;50756;-78
2022/11/15 14:19:00;;;;;;;;;5.00;4.00;;;;;13.38;100.00;99712.22;6239392;22;49519;-80
2022/11/15 14:21:25;;;;;;;;;1.00;1.00;;;;;13.51;100.00;99771.03;6237560;22;50305;-80
2022/11/15 14:23:51;;;;;;;;;4.75;4.00;;;;;13.60;100.00;99747.22;6237880;22;49652;-80
2022/11/15 14:26:32;;;;;;;;;3.00;3.00;;;;;13.83;100.00;99781.34;6236858;22;50292;-80
2022/11/15 14:29:21;;;;;;;;;4.00;4.00;;;;;13.12;100.00;99641.25;6236576;22;49830;-81
2022/11/15 14:31:47;;;;;;;;;3.50;3.50;;;;;12.55;100.00;99545.94;6236837;22;49573;-80
2022/11/15 14:34:12;;;;;;;;;5.00;5.00;;;;;13.85;100.00;99781.31;6237004;22;49436;-80
2022/11/15 14:36:37;;;;;;;;;4.50;4.50;;;;;12.84;100.00;99590.53;6236966;22;49840;-80
2022/11/15 14:39:05;;;;;;;;;8.75;7.25;;;;;13.82;100.00;99754.97;6236991;22;49580;-80
2022/11/15 14:41:37;;;;;;;;;7.25;6.75;;;;;13.22;100.00;99665.81;6236489;22;49547;-80
2022/11/15 14:44:04;;;;;;;;;6.00;6.00;;;;;14.12;100.00;99810.13;6209424;22;49732;-80
2022/11/15 14:46:30;;;;;;;;;6.00;6.00;;;;;12.43;100.00;99553.91;6206939;22;51591;-80
2022/11/15 14:48:55;;;;;;;;;6.00;5.00;;;;;12.81;100.00;99579.97;6235518;22;49812;-80
2022/11/15 14:51:20;;;;;;;;;6.00;6.00;;;;;13.63;100.00;99744.56;6236030;22;49737;-79
2022/11/15 14:53:46;;;;;;;;;4.50;4.50;;;;;13.73;100.00;99745.38;6209178;22;49899;-79
2022/11/15 14:56:13;;;;;;;;;6.75;6.75;;;;;12.82;100.00;99623.00;6236210;22;50263;-80
2022/11/15 14:58:38;;;;;;;;;5.00;5.00;;;;;12.79;100.00;99586.16;6236607;22;49693;-80
2022/11/15 15:01:23;;;;;;;;;7.75;7.50;;;;;14.07;100.00;99797.84;6236715;22;49729;-80
2022/11/15 15:03:51;;;;;;;;;7.50;6.00;;;;;14.14;100.00;99800.41;6237409;22;50115;-80
2022/11/15 15:06:16;;;;;;;;;9.75;9.25;;;;;12.61;100.00;99569.59;6236124;22;50612;-81
2022/11/15 15:08:42;;;;;;;;;7.50;7.50;;;;;14.23;100.00;99808.25;6235034;22;49705;-80
2022/11/15 15:11:29;;;;;;;;;7.00;7.00;;;;;14.24;100.00;99804.72;6236314;22;49722;-79
2022/11/15 15:13:56;;;;;;;;;8.00;7.25;;;;;12.53;100.00;99526.63;6244990;22;49697;-80
2022/11/15 15:16:23;;;;;;;;;7.50;7.50;;;;;14.27;100.00;99817.00;6248119;22;50020;-80
2022/11/15 15:18:49;;;;;;;;;8.00;8.00;;;;;12.86;100.00;99562.41;6240943;22;49598;-80
2022/11/15 15:21:24;;;;;;;;;7.00;7.00;;;;;13.60;100.00;99676.00;6236771;22;49716;-81
2022/11/15 15:23:49;;;;;;;;;7.50;7.50;;;;;14.33;100.00;99809.91;6235391;22;50018;-79
2022/11/15 15:26:15;;;;;;;;;9.50;9.50;;;;;13.61;100.00;99661.97;6234966;22;50048;-74
2022/11/15 15:28:41;;;;;;;;;12.25;8.25;;;;;13.62;100.00;99666.34;6243238;22;49614;-73
2022/11/15 15:31:07;;;;;;;;;6.00;6.00;;;;;12.82;100.00;99538.72;6237876;22;49722;-78
2022/11/15 15:33:33;;;;;;;;;7.75;7.75;;;;;13.70;100.00;99706.72;6244446;22;49732;-76
2022/11/15 15:35:59;;;;;;;;;7.25;6.75;;;;;14.10;100.00;99751.19;6240304;22;58773;-74
2022/11/15 15:38:24;;;;;;;;;5.75;5.75;;;;;13.89;100.00;99725.88;6242979;22;49593;-72
2022/11/15 15:40:49;;;;;;;;;10.00;9.50;;;;;14.03;100.00;99744.22;6242702;22;49312;-76
2022/11/15 15:43:15;;;;;;;;;8.75;6.25;;;;;13.70;100.00;99676.81;6242185;22;50071;-76
2022/11/15 15:45:41;;;;;;;;;8.00;7.00;;;;;13.89;100.00;99703.88;6240565;22;50224;-77
2022/11/15 15:48:15;;;;;;;;;7.50;7.50;;;;;13.31;100.00;99622.66;6243469;22;50222;-80
2022/11/15 15:50:42;;;;;;;;;8.00;8.00;;;;;14.27;100.00;99765.09;6244437;22;49515;-77
2022/11/15 15:53:10;;;;;;;;;7.25;7.25;;;;;14.28;100.00;99768.59;6246753;22;49686;-76
2022/11/15 15:55:36;;;;;;;;;7.75;7.75;;;;;13.99;100.00;99716.09;6241318;22;49743;-73
2022/11/15 15:58:03;;;;;;;;;8.75;8.75;;;;;13.37;100.00;99614.72;6239758;22;49786;-77
2022/11/15 16:00:28;;;;;;;;;9.50;8.25;;;;;14.28;100.00;99765.97;6240812;22;49735;-75
2022/11/15 16:02:55;;;;;;;;;9.75;9.50;;;;;14.27;100.00;99761.56;6239527;22;49881;-82
2022/11/15 16:05:21;;;;;;;;;9.75;8.75;;;;;14.27;100.00;99765.09;6239466;22;49617;-82
2022/11/15 16:07:50;;;;;;;;;8.00;8.00;;;;;12.66;100.00;99497.63;6247859;22;49492;-76
2022/11/15 16:10:19;;;;;;;;;12.75;12.75;;;;;13.98;100.00;99714.34;6246090;22;49324;-76
2022/11/15 16:12:46;;;;;;;;;9.75;7.50;;;;;14.04;100.00;99728.38;6242801;22;49529;-78
2022/11/15 16:15:11;;;;;;;;;9.00;8.50;;;;;13.74;100.00;99692.59;6238436;22;50009;-80
2022/11/15 16:17:51;;;;;;;;;10.00;8.25;;;;;13.34;100.00;99622.66;6234797;22;49709;-83
2022/11/15 16:20:35;;;;;;;;;8.50;8.50;;;;;14.31;100.00;99755.38;6235836;22;50128;-78
2022/11/15 16:23:02;;;;;;;;;8.00;8.00;;;;;14.11;100.00;99728.31;6239702;22;49705;-75
2022/11/15 16:25:28;;;;;;;;;9.00;8.00;;;;;12.59;100.00;99470.44;6241681;22;50538;-78
2022/11/15 16:27:54;;;;;;;;;8.75;7.00;;;;;13.71;100.00;99699.69;6240750;22;49501;-77
2022/11/15 16:30:22;;;;;;;;;11.75;10.50;;;;;13.97;100.00;99707.34;6237289;22;49773;-79
2022/11/15 16:32:48;;;;;;;;;8.75;7.75;;;;;13.57;100.00;99619.81;6236946;22;49799;-78
2022/11/15 16:35:15;;;;;;;;;7.50;7.50;;;;;12.71;100.00;99474.72;6238041;22;49736;-79
2022/11/15 16:37:41;;;;;;;;;8.00;8.00;;;;;14.11;100.00;99733.59;6210971;22;49737;-77
2022/11/15 16:40:19;;;;;;;;;10.75;10.00;;;;;14.30;100.00;99746.59;6238203;22;49620;-76
2022/11/15 16:42:45;;;;;;;;;6.75;5.25;;;;;14.32;100.00;99763.28;6235879;22;49887;-79
2022/11/15 16:45:13;;;;;;;;;8.25;8.25;;;;;13.62;100.00;99647.88;6235823;22;50527;-78
2022/11/15 16:47:38;;;;;;;;;12.00;9.75;;;;;14.28;100.00;99729.91;6233765;22;49807;-80
2022/11/15 16:50:04;;;;;;;;;14.25;9.00;;;;;14.30;100.00;99741.31;6236376;22;49811;-79
2022/11/15 16:52:29;;;;;;;;;13.25;10.25;;;;;13.08;100.00;99533.25;6235329;22;49840;-80
2022/11/15 16:54:55;;;;;;;;;9.00;9.00;;;;;14.10;100.00;99703.69;6235512;22;50748;-76
2022/11/15 16:57:21;;;;;;;;;10.50;9.25;;;;;14.34;100.00;99728.94;6235061;22;49819;-79
2022/11/15 16:59:46;;;;;;;;;8.00;7.00;;;;;13.07;100.00;99503.38;6235996;22;49983;-75
2022/11/15 17:02:12;;;;;;;;;8.75;8.75;;;;;14.14;100.00;99684.28;6207746;22;49781;-76
2022/11/15 17:04:38;;;;;;;;;8.25;8.25;;;;;14.27;100.00;99717.56;6234845;22;49735;-74
2022/11/15 17:07:03;;;;;;;;;11.00;9.25;;;;;13.61;100.00;99608.34;6235334;22;49696;-76
2022/11/15 17:09:28;;;;;;;;;8.00;8.00;;;;;14.10;100.00;99719.53;6235103;22;49949;-76
2022/11/15 17:11:54;;;;;;;;;15.50;14.00;;;;;14.04;100.00;99680.00;6235131;22;49702;-76
2022/11/15 17:14:19;;;;;;;;;15.25;12.75;;;;;14.06;100.00;99672.06;6234583;22;49958;-77
2022/11/15 17:16:45;;;;;;;;;5.50;5.50;;;;;14.36;100.00;99716.59;6235670;22;49558;-77
2022/11/15 17:19:15;;;;;;;;;14.00;10.50;;;;;13.87;100.00;99626.53;6234884;22;49727;-76
2022/11/15 17:21:42;;;;;;;;;8.25;7.00;;;;;13.82;100.00;99621.31;6235545;22;49598;-74
2022/11/15 17:24:07;;;;;;;;;8.75;7.75;;;;;14.44;100.00;99714.75;6235277;22;49759;-74
2022/11/15 17:26:33;;;;;;;;;9.50;9.50;;;;;13.68;100.00;99604.75;6234836;22;49696;-76
2022/11/15 17:29:00;;;;;;;;;11.50;10.00;;;;;14.49;100.00;99714.75;6241705;22;49658;-80
2022/11/15 17:31:26;;;;;;;;;9.50;8.25;;;;;14.50;100.00;99709.44;6236779;22;49678;-75
2022/11/15 17:33:51;;;;;;;;;11.25;8.00;;;;;14.50;100.00;99711.22;6235316;22;50391;-72
2022/11/15 17:36:16;;;;;;;;;9.25;9.25;;;;;14.34;100.00;99686.69;6223059;22;50075;-73
2022/11/15 17:38:42;;;;;;;;;9.25;8.50;;;;;14.28;100.00;99706.16;6230070;22;49884;-72
2022/11/15 17:41:15;;;;;;;;;12.25;10.25;;;;;14.03;100.00;99641.31;6232553;22;49625;-72
2022/11/15 17:43:41;;;;;;;;;12.50;11.25;;;;;14.14;100.00;99655.25;6230932;22;49581;-78
2022/11/15 17:46:09;;;;;;;;;13.00;13.00;;;;;14.32;100.00;99673.53;6202461;22;49801;-72
2022/11/15 17:48:35;;;;;;;;;6.00;5.75;;;;;13.69;100.00;99572.19;6206452;22;49993;-70